sensor_id;sensor_type;location;lat;lon;timestamp;P1;durP1;ratioP1;P2;durP2;ratioP2
7503;SDS011;3793;48.136;11.536;2022-10-04T00:00:49;11.43;;;8.10;;
7503;SDS011;3793;48.136;11.536;2022-10-04T00:03:21;11.53;;;7.83;;
7503;SDS011;3793;48.136;11.536;2022-10-04T00:05:49;10.77;;;8.07;;
7503;SDS011;3793;48.136;11.536;2022-10-04T00:08:21;11.80;;;8.43;;
7503;SDS011;3793;48.136;11.536;2022-10-04T00:10:50;11.83;;;7.83;;
7503;SDS011;3793;48.136;11.536;2022-10-04T00:13:26;13.57;;;7.77;;
7503;SDS011;3793;48.136;11.536;2022-10-04T00:15:54;12.07;;;8.33;;
7503;SDS011;3793;48.136;11.536;2022-10-04T00:18:22;13.33;;;8.83;;
7503;SDS011;3793;48.136;11.536;2022-10-04T00:20:57;13.57;;;8.17;;
7503;SDS011;3793;48.136;11.536;2022-10-04T00:23:27;11.27;;;7.20;;
7503;SDS011;3793;48.136;11.536;2022-10-04T00:25:55;12.93;;;7.97;;
7503;SDS011;3793;48.136;11.536;2022-10-04T00:28:41;12.50;;;7.37;;
7503;SDS011;3793;48.136;11.536;2022-10-04T00:31:12;11.80;;;7.83;;
7503;SDS011;3793;48.136;11.536;2022-10-04T00:33:40;14.30;;;7.63;;
7503;SDS011;3793;48.136;11.536;2022-10-04T00:39:03;7.90;;;6.23;;
7503;SDS011;3793;48.136;11.536;2022-10-04T00:41:41;8.93;;;6.17;;
7503;SDS011;3793;48.136;11.536;2022-10-04T00:44:09;11.53;;;7.07;;
7503;SDS011;3793;48.136;11.536;2022-10-04T00:46:40;9.00;;;6.33;;
7503;SDS011;3793;48.136;11.536;2022-10-04T00:49:08;8.80;;;6.10;;
7503;SDS011;3793;48.136;11.536;2022-10-04T00:51:37;7.77;;;6.13;;
7503;SDS011;3793;48.136;11.536;2022-10-04T00:54:07;12.03;;;6.83;;
7503;SDS011;3793;48.136;11.536;2022-10-04T00:56:38;9.93;;;6.73;;
7503;SDS011;3793;48.136;11.536;2022-10-04T01:01:51;9.87;;;6.77;;
7503;SDS011;3793;48.136;11.536;2022-10-04T01:04:25;11.53;;;6.53;;
7503;SDS011;3793;48.136;11.536;2022-10-04T01:06:53;8.07;;;6.13;;
7503;SDS011;3793;48.136;11.536;2022-10-04T01:09:21;10.17;;;6.30;;
7503;SDS011;3793;48.136;11.536;2022-10-04T01:11:49;8.47;;;6.20;;
7503;SDS011;3793;48.136;11.536;2022-10-04T01:14:28;10.00;;;6.90;;
7503;SDS011;3793;48.136;11.536;2022-10-04T01:16:55;9.73;;;6.80;;
7503;SDS011;3793;48.136;11.536;2022-10-04T01:19:27;11.57;;;7.60;;
7503;SDS011;3793;48.136;11.536;2022-10-04T01:22:08;8.83;;;7.10;;
7503;SDS011;3793;48.136;11.536;2022-10-04T01:24:36;12.27;;;6.70;;
7503;SDS011;3793;48.136;11.536;2022-10-04T01:27:03;9.27;;;6.37;;
7503;SDS011;3793;48.136;11.536;2022-10-04T01:29:32;10.93;;;6.70;;
7503;SDS011;3793;48.136;11.536;2022-10-04T01:31:59;10.43;;;6.67;;
7503;SDS011;3793;48.136;11.536;2022-10-04T01:34:26;8.63;;;6.07;;
7503;SDS011;3793;48.136;11.536;2022-10-04T01:36:54;10.03;;;6.10;;
7503;SDS011;3793;48.136;11.536;2022-10-04T01:39:21;9.83;;;6.00;;
7503;SDS011;3793;48.136;11.536;2022-10-04T01:41:50;13.70;;;6.27;;
7503;SDS011;3793;48.136;11.536;2022-10-04T01:44:25;7.60;;;5.93;;
7503;SDS011;3793;48.136;11.536;2022-10-04T01:46:52;6.63;;;5.57;;
7503;SDS011;3793;48.136;11.536;2022-10-04T01:49:22;8.20;;;6.10;;
7503;SDS011;3793;48.136;11.536;2022-10-04T01:51:51;9.30;;;6.27;;
7503;SDS011;3793;48.136;11.536;2022-10-04T01:54:21;8.23;;;6.03;;
7503;SDS011;3793;48.136;11.536;2022-10-04T01:56:55;10.43;;;6.53;;
7503;SDS011;3793;48.136;11.536;2022-10-04T01:59:25;13.67;;;7.30;;
7503;SDS011;3793;48.136;11.536;2022-10-04T02:01:52;11.30;;;6.50;;
7503;SDS011;3793;48.136;11.536;2022-10-04T02:04:22;9.13;;;6.50;;
7503;SDS011;3793;48.136;11.536;2022-10-04T02:06:52;9.97;;;5.93;;
7503;SDS011;3793;48.136;11.536;2022-10-04T02:09:22;11.27;;;7.13;;
7503;SDS011;3793;48.136;11.536;2022-10-04T02:11:49;8.80;;;6.27;;
7503;SDS011;3793;48.136;11.536;2022-10-04T02:14:19;7.97;;;6.10;;
7503;SDS011;3793;48.136;11.536;2022-10-04T02:16:47;9.40;;;6.50;;
7503;SDS011;3793;48.136;11.536;2022-10-04T02:19:16;8.80;;;6.03;;
7503;SDS011;3793;48.136;11.536;2022-10-04T02:21:43;9.40;;;5.90;;
7503;SDS011;3793;48.136;11.536;2022-10-04T02:24:10;9.57;;;6.33;;
7503;SDS011;3793;48.136;11.536;2022-10-04T02:26:37;9.20;;;5.67;;
7503;SDS011;3793;48.136;11.536;2022-10-04T02:29:04;8.07;;;5.50;;
7503;SDS011;3793;48.136;11.536;2022-10-04T02:31:32;9.30;;;5.20;;
7503;SDS011;3793;48.136;11.536;2022-10-04T02:34:16;6.93;;;5.10;;
7503;SDS011;3793;48.136;11.536;2022-10-04T02:36:43;9.10;;;5.83;;
7503;SDS011;3793;48.136;11.536;2022-10-04T02:39:12;6.37;;;5.23;;
7503;SDS011;3793;48.136;11.536;2022-10-04T02:41:40;7.30;;;4.73;;
7503;SDS011;3793;48.136;11.536;2022-10-04T02:44:09;9.40;;;5.70;;
7503;SDS011;3793;48.136;11.536;2022-10-04T02:46:40;6.07;;;5.37;;
7503;SDS011;3793;48.136;11.536;2022-10-04T02:49:09;10.13;;;5.17;;
7503;SDS011;3793;48.136;11.536;2022-10-04T02:51:39;8.43;;;5.00;;
7503;SDS011;3793;48.136;11.536;2022-10-04T02:54:11;5.70;;;4.50;;
7503;SDS011;3793;48.136;11.536;2022-10-04T02:56:39;7.63;;;5.30;;
7503;SDS011;3793;48.136;11.536;2022-10-04T02:59:10;8.57;;;5.20;;
7503;SDS011;3793;48.136;11.536;2022-10-04T03:01:45;9.10;;;5.30;;
7503;SDS011;3793;48.136;11.536;2022-10-04T03:04:13;10.20;;;5.20;;
7503;SDS011;3793;48.136;11.536;2022-10-04T03:06:40;5.33;;;4.83;;
7503;SDS011;3793;48.136;11.536;2022-10-04T03:09:08;7.30;;;4.90;;
7503;SDS011;3793;48.136;11.536;2022-10-04T03:11:35;7.60;;;4.87;;
7503;SDS011;3793;48.136;11.536;2022-10-04T03:14:03;8.57;;;4.63;;
7503;SDS011;3793;48.136;11.536;2022-10-04T03:16:33;5.57;;;4.30;;
7503;SDS011;3793;48.136;11.536;2022-10-04T03:19:02;7.80;;;4.50;;
7503;SDS011;3793;48.136;11.536;2022-10-04T03:21:29;5.17;;;4.50;;
7503;SDS011;3793;48.136;11.536;2022-10-04T03:23:56;8.23;;;5.07;;
7503;SDS011;3793;48.136;11.536;2022-10-04T03:26:26;8.17;;;4.70;;
7503;SDS011;3793;48.136;11.536;2022-10-04T03:28:54;6.80;;;4.47;;
7503;SDS011;3793;48.136;11.536;2022-10-04T03:31:21;7.23;;;4.97;;
7503;SDS011;3793;48.136;11.536;2022-10-04T03:33:50;6.23;;;4.77;;
7503;SDS011;3793;48.136;11.536;2022-10-04T03:36:18;4.90;;;3.97;;
7503;SDS011;3793;48.136;11.536;2022-10-04T03:38:45;6.20;;;4.43;;
7503;SDS011;3793;48.136;11.536;2022-10-04T03:41:12;5.90;;;4.20;;
7503;SDS011;3793;48.136;11.536;2022-10-04T03:43:41;7.40;;;5.37;;
7503;SDS011;3793;48.136;11.536;2022-10-04T03:46:09;7.80;;;4.07;;
7503;SDS011;3793;48.136;11.536;2022-10-04T03:48:37;6.47;;;4.50;;
7503;SDS011;3793;48.136;11.536;2022-10-04T03:51:05;5.87;;;4.50;;
7503;SDS011;3793;48.136;11.536;2022-10-04T03:53:34;8.13;;;4.30;;
7503;SDS011;3793;48.136;11.536;2022-10-04T03:56:07;7.00;;;4.77;;
7503;SDS011;3793;48.136;11.536;2022-10-04T03:58:35;4.67;;;3.70;;
7503;SDS011;3793;48.136;11.536;2022-10-04T04:01:03;7.70;;;4.03;;
7503;SDS011;3793;48.136;11.536;2022-10-04T04:03:45;7.23;;;4.30;;
7503;SDS011;3793;48.136;11.536;2022-10-04T04:06:21;5.30;;;4.33;;
7503;SDS011;3793;48.136;11.536;2022-10-04T04:08:51;4.87;;;4.27;;
7503;SDS011;3793;48.136;11.536;2022-10-04T04:11:20;8.50;;;4.60;;
7503;SDS011;3793;48.136;11.536;2022-10-04T04:13:53;7.37;;;4.43;;
7503;SDS011;3793;48.136;11.536;2022-10-04T04:16:31;6.23;;;4.03;;
7503;SDS011;3793;48.136;11.536;2022-10-04T04:19:01;7.20;;;4.50;;
7503;SDS011;3793;48.136;11.536;2022-10-04T04:21:36;9.30;;;5.10;;
7503;SDS011;3793;48.136;11.536;2022-10-04T04:24:06;7.00;;;4.23;;
7503;SDS011;3793;48.136;11.536;2022-10-04T04:26:45;6.40;;;4.73;;
7503;SDS011;3793;48.136;11.536;2022-10-04T04:29:16;5.33;;;4.43;;
7503;SDS011;3793;48.136;11.536;2022-10-04T04:31:44;5.97;;;3.97;;
7503;SDS011;3793;48.136;11.536;2022-10-04T04:34:14;9.50;;;4.93;;
7503;SDS011;3793;48.136;11.536;2022-10-04T04:36:50;4.20;;;3.80;;
7503;SDS011;3793;48.136;11.536;2022-10-04T04:39:23;8.20;;;4.43;;
7503;SDS011;3793;48.136;11.536;2022-10-04T04:42:14;8.83;;;4.33;;
7503;SDS011;3793;48.136;11.536;2022-10-04T04:44:49;6.40;;;4.20;;
7503;SDS011;3793;48.136;11.536;2022-10-04T04:47:24;6.37;;;4.20;;
7503;SDS011;3793;48.136;11.536;2022-10-04T04:49:51;7.27;;;4.63;;
7503;SDS011;3793;48.136;11.536;2022-10-04T04:52:18;5.67;;;4.30;;
7503;SDS011;3793;48.136;11.536;2022-10-04T04:54:49;6.47;;;4.03;;
7503;SDS011;3793;48.136;11.536;2022-10-04T04:57:18;6.00;;;4.67;;
7503;SDS011;3793;48.136;11.536;2022-10-04T04:59:46;6.77;;;4.77;;
7503;SDS011;3793;48.136;11.536;2022-10-04T05:02:26;7.70;;;4.90;;
7503;SDS011;3793;48.136;11.536;2022-10-04T05:07:35;8.37;;;4.77;;
7503;SDS011;3793;48.136;11.536;2022-10-04T05:10:08;9.30;;;4.33;;
7503;SDS011;3793;48.136;11.536;2022-10-04T05:12:44;6.27;;;4.27;;
7503;SDS011;3793;48.136;11.536;2022-10-04T05:15:11;11.17;;;4.97;;
7503;SDS011;3793;48.136;11.536;2022-10-04T05:17:43;6.60;;;5.00;;
7503;SDS011;3793;48.136;11.536;2022-10-04T05:20:24;8.13;;;4.63;;
7503;SDS011;3793;48.136;11.536;2022-10-04T05:23:07;7.27;;;4.70;;
7503;SDS011;3793;48.136;11.536;2022-10-04T05:25:38;7.77;;;4.83;;
7503;SDS011;3793;48.136;11.536;2022-10-04T05:28:05;6.03;;;4.70;;
7503;SDS011;3793;48.136;11.536;2022-10-04T05:30:39;8.37;;;5.03;;
7503;SDS011;3793;48.136;11.536;2022-10-04T05:33:13;14.27;;;9.23;;
7503;SDS011;3793;48.136;11.536;2022-10-04T05:35:41;9.30;;;5.00;;
7503;SDS011;3793;48.136;11.536;2022-10-04T05:38:11;7.33;;;4.90;;
7503;SDS011;3793;48.136;11.536;2022-10-04T05:40:44;7.63;;;5.33;;
7503;SDS011;3793;48.136;11.536;2022-10-04T05:43:20;9.37;;;5.07;;
7503;SDS011;3793;48.136;11.536;2022-10-04T05:48:57;8.10;;;5.27;;
7503;SDS011;3793;48.136;11.536;2022-10-04T05:54:38;8.70;;;5.80;;
7503;SDS011;3793;48.136;11.536;2022-10-04T06:00:12;8.60;;;5.23;;
7503;SDS011;3793;48.136;11.536;2022-10-04T06:02:44;6.67;;;4.70;;
7503;SDS011;3793;48.136;11.536;2022-10-04T06:05:16;10.47;;;4.37;;
7503;SDS011;3793;48.136;11.536;2022-10-04T06:07:46;6.80;;;4.93;;
7503;SDS011;3793;48.136;11.536;2022-10-04T06:10:40;10.53;;;5.17;;
7503;SDS011;3793;48.136;11.536;2022-10-04T06:13:42;10.10;;;4.63;;
7503;SDS011;3793;48.136;11.536;2022-10-04T06:16:17;12.03;;;5.17;;
7503;SDS011;3793;48.136;11.536;2022-10-04T06:21:35;9.27;;;5.13;;
7503;SDS011;3793;48.136;11.536;2022-10-04T06:24:08;9.70;;;5.77;;
7503;SDS011;3793;48.136;11.536;2022-10-04T06:26:36;8.40;;;5.63;;
7503;SDS011;3793;48.136;11.536;2022-10-04T06:29:05;7.73;;;5.57;;
7503;SDS011;3793;48.136;11.536;2022-10-04T06:34:34;8.50;;;5.67;;
7503;SDS011;3793;48.136;11.536;2022-10-04T06:37:06;8.20;;;5.20;;
7503;SDS011;3793;48.136;11.536;2022-10-04T06:39:42;7.00;;;5.03;;
7503;SDS011;3793;48.136;11.536;2022-10-04T06:45:09;12.37;;;5.07;;
7503;SDS011;3793;48.136;11.536;2022-10-04T06:47:45;9.07;;;5.13;;
7503;SDS011;3793;48.136;11.536;2022-10-04T06:50:21;7.10;;;5.40;;
7503;SDS011;3793;48.136;11.536;2022-10-04T06:52:57;10.07;;;4.73;;
7503;SDS011;3793;48.136;11.536;2022-10-04T06:55:34;6.53;;;4.90;;
7503;SDS011;3793;48.136;11.536;2022-10-04T07:00:44;11.63;;;5.67;;
7503;SDS011;3793;48.136;11.536;2022-10-04T07:03:15;9.17;;;7.60;;
7503;SDS011;3793;48.136;11.536;2022-10-04T07:05:44;5.77;;;4.97;;
7503;SDS011;3793;48.136;11.536;2022-10-04T07:08:26;13.50;;;5.50;;
7503;SDS011;3793;48.136;11.536;2022-10-04T07:10:58;10.77;;;5.70;;
7503;SDS011;3793;48.136;11.536;2022-10-04T07:13:31;8.77;;;4.80;;
7503;SDS011;3793;48.136;11.536;2022-10-04T07:15:59;7.97;;;5.27;;
7503;SDS011;3793;48.136;11.536;2022-10-04T07:18:28;8.33;;;5.10;;
7503;SDS011;3793;48.136;11.536;2022-10-04T07:20:59;7.27;;;5.13;;
7503;SDS011;3793;48.136;11.536;2022-10-04T07:23:29;7.33;;;4.27;;
7503;SDS011;3793;48.136;11.536;2022-10-04T07:25:57;10.23;;;5.00;;
7503;SDS011;3793;48.136;11.536;2022-10-04T07:28:26;13.90;;;5.00;;
7503;SDS011;3793;48.136;11.536;2022-10-04T07:31:12;6.87;;;4.77;;
7503;SDS011;3793;48.136;11.536;2022-10-04T07:33:46;7.77;;;4.70;;
7503;SDS011;3793;48.136;11.536;2022-10-04T07:36:16;9.83;;;5.13;;
7503;SDS011;3793;48.136;11.536;2022-10-04T07:38:46;9.13;;;5.63;;
7503;SDS011;3793;48.136;11.536;2022-10-04T07:41:17;11.77;;;8.83;;
7503;SDS011;3793;48.136;11.536;2022-10-04T07:43:48;10.37;;;6.60;;
7503;SDS011;3793;48.136;11.536;2022-10-04T07:46:18;12.10;;;5.60;;
7503;SDS011;3793;48.136;11.536;2022-10-04T07:48:45;11.73;;;5.63;;
7503;SDS011;3793;48.136;11.536;2022-10-04T07:51:19;10.87;;;4.87;;
7503;SDS011;3793;48.136;11.536;2022-10-04T07:53:47;12.17;;;5.43;;
7503;SDS011;3793;48.136;11.536;2022-10-04T07:56:18;7.87;;;5.10;;
7503;SDS011;3793;48.136;11.536;2022-10-04T07:58:48;6.33;;;4.73;;
7503;SDS011;3793;48.136;11.536;2022-10-04T08:01:22;7.23;;;4.63;;
7503;SDS011;3793;48.136;11.536;2022-10-04T08:04:03;6.73;;;3.83;;
7503;SDS011;3793;48.136;11.536;2022-10-04T08:06:34;6.43;;;4.37;;
7503;SDS011;3793;48.136;11.536;2022-10-04T08:09:08;8.53;;;4.23;;
7503;SDS011;3793;48.136;11.536;2022-10-04T08:11:41;7.47;;;5.10;;
7503;SDS011;3793;48.136;11.536;2022-10-04T08:14:17;5.47;;;4.33;;
7503;SDS011;3793;48.136;11.536;2022-10-04T08:16:51;9.40;;;4.83;;
7503;SDS011;3793;48.136;11.536;2022-10-04T08:19:29;8.03;;;4.10;;
7503;SDS011;3793;48.136;11.536;2022-10-04T08:22:02;6.97;;;3.93;;
7503;SDS011;3793;48.136;11.536;2022-10-04T08:24:32;6.33;;;3.87;;
7503;SDS011;3793;48.136;11.536;2022-10-04T08:27:06;6.13;;;3.73;;
7503;SDS011;3793;48.136;11.536;2022-10-04T08:29:54;8.27;;;4.03;;
7503;SDS011;3793;48.136;11.536;2022-10-04T08:32:26;5.90;;;3.43;;
7503;SDS011;3793;48.136;11.536;2022-10-04T08:35:02;7.67;;;3.43;;
7503;SDS011;3793;48.136;11.536;2022-10-04T08:37:43;4.57;;;3.57;;
7503;SDS011;3793;48.136;11.536;2022-10-04T08:40:26;5.03;;;4.10;;
7503;SDS011;3793;48.136;11.536;2022-10-04T08:45:46;5.33;;;3.63;;
7503;SDS011;3793;48.136;11.536;2022-10-04T08:51:05;5.67;;;4.43;;
7503;SDS011;3793;48.136;11.536;2022-10-04T08:53:56;5.80;;;3.90;;
7503;SDS011;3793;48.136;11.536;2022-10-04T08:56:35;7.50;;;4.10;;
7503;SDS011;3793;48.136;11.536;2022-10-04T08:59:23;7.80;;;3.77;;
7503;SDS011;3793;48.136;11.536;2022-10-04T09:02:00;4.73;;;3.70;;
7503;SDS011;3793;48.136;11.536;2022-10-04T09:04:40;6.00;;;4.10;;
7503;SDS011;3793;48.136;11.536;2022-10-04T09:07:21;6.27;;;3.80;;
7503;SDS011;3793;48.136;11.536;2022-10-04T09:10:10;6.37;;;4.10;;
7503;SDS011;3793;48.136;11.536;2022-10-04T09:12:46;5.53;;;3.47;;
7503;SDS011;3793;48.136;11.536;2022-10-04T09:15:20;6.30;;;3.50;;
7503;SDS011;3793;48.136;11.536;2022-10-04T09:17:53;7.73;;;4.00;;
7503;SDS011;3793;48.136;11.536;2022-10-04T09:20:22;5.63;;;4.03;;
7503;SDS011;3793;48.136;11.536;2022-10-04T09:23:00;5.50;;;3.80;;
7503;SDS011;3793;48.136;11.536;2022-10-04T09:25:41;7.77;;;4.00;;
7503;SDS011;3793;48.136;11.536;2022-10-04T09:33:39;6.27;;;3.40;;
7503;SDS011;3793;48.136;11.536;2022-10-04T09:36:23;3.97;;;3.17;;
7503;SDS011;3793;48.136;11.536;2022-10-04T09:38:57;4.60;;;3.50;;
7503;SDS011;3793;48.136;11.536;2022-10-04T09:41:38;4.47;;;3.33;;
7503;SDS011;3793;48.136;11.536;2022-10-04T09:47:08;5.03;;;3.10;;
7503;SDS011;3793;48.136;11.536;2022-10-04T09:49:47;6.23;;;3.30;;
7503;SDS011;3793;48.136;11.536;2022-10-04T09:52:20;6.27;;;2.90;;
7503;SDS011;3793;48.136;11.536;2022-10-04T09:54:57;4.30;;;2.77;;
7503;SDS011;3793;48.136;11.536;2022-10-04T09:57:33;4.80;;;2.93;;
7503;SDS011;3793;48.136;11.536;2022-10-04T10:00:10;4.57;;;3.27;;
7503;SDS011;3793;48.136;11.536;2022-10-04T10:08:24;6.00;;;3.00;;
7503;SDS011;3793;48.136;11.536;2022-10-04T10:10:55;6.07;;;2.90;;
7503;SDS011;3793;48.136;11.536;2022-10-04T10:14:04;7.03;;;3.60;;
7503;SDS011;3793;48.136;11.536;2022-10-04T10:16:36;5.77;;;3.47;;
7503;SDS011;3793;48.136;11.536;2022-10-04T10:19:12;3.47;;;2.90;;
7503;SDS011;3793;48.136;11.536;2022-10-04T10:21:48;3.57;;;3.00;;
7503;SDS011;3793;48.136;11.536;2022-10-04T10:27:08;5.53;;;2.70;;
7503;SDS011;3793;48.136;11.536;2022-10-04T10:32:32;4.50;;;3.23;;
7503;SDS011;3793;48.136;11.536;2022-10-04T10:35:06;7.80;;;3.37;;
7503;SDS011;3793;48.136;11.536;2022-10-04T10:37:42;2.83;;;2.53;;
7503;SDS011;3793;48.136;11.536;2022-10-04T10:40:18;6.60;;;3.20;;
7503;SDS011;3793;48.136;11.536;2022-10-04T10:45:51;5.30;;;3.40;;
7503;SDS011;3793;48.136;11.536;2022-10-04T10:48:27;9.53;;;3.17;;
7503;SDS011;3793;48.136;11.536;2022-10-04T10:50:59;4.03;;;2.70;;
7503;SDS011;3793;48.136;11.536;2022-10-04T10:56:22;5.43;;;3.00;;
7503;SDS011;3793;48.136;11.536;2022-10-04T11:04:36;5.07;;;2.40;;
7503;SDS011;3793;48.136;11.536;2022-10-04T11:09:54;4.37;;;2.90;;
7503;SDS011;3793;48.136;11.536;2022-10-04T11:18:04;4.78;;;3.10;;
7503;SDS011;3793;48.136;11.536;2022-10-04T11:20:46;4.90;;;2.95;;
7503;SDS011;3793;48.136;11.536;2022-10-04T11:29:06;5.73;;;2.60;;
7503;SDS011;3793;48.136;11.536;2022-10-04T11:31:37;4.13;;;2.45;;
7503;SDS011;3793;48.136;11.536;2022-10-04T11:37:06;4.90;;;2.73;;
7503;SDS011;3793;48.136;11.536;2022-10-04T11:42:33;2.60;;;2.40;;
7503;SDS011;3793;48.136;11.536;2022-10-04T11:45:04;2.83;;;2.33;;
7503;SDS011;3793;48.136;11.536;2022-10-04T11:47:39;4.63;;;2.70;;
7503;SDS011;3793;48.136;11.536;2022-10-04T11:53:15;3.00;;;2.42;;
7503;SDS011;3793;48.136;11.536;2022-10-04T11:55:51;3.70;;;2.20;;
7503;SDS011;3793;48.136;11.536;2022-10-04T11:58:25;3.85;;;2.58;;
7503;SDS011;3793;48.136;11.536;2022-10-04T12:00:58;3.80;;;2.53;;
7503;SDS011;3793;48.136;11.536;2022-10-04T12:03:39;4.55;;;2.70;;
7503;SDS011;3793;48.136;11.536;2022-10-04T12:06:16;5.00;;;2.55;;
7503;SDS011;3793;48.136;11.536;2022-10-04T12:08:49;6.13;;;2.88;;
7503;SDS011;3793;48.136;11.536;2022-10-04T12:11:28;4.18;;;2.70;;
7503;SDS011;3793;48.136;11.536;2022-10-04T12:14:16;6.13;;;3.10;;
7503;SDS011;3793;48.136;11.536;2022-10-04T12:16:52;6.25;;;2.75;;
7503;SDS011;3793;48.136;11.536;2022-10-04T12:22:24;5.20;;;2.95;;
7503;SDS011;3793;48.136;11.536;2022-10-04T12:27:44;5.60;;;3.58;;
7503;SDS011;3793;48.136;11.536;2022-10-04T12:30:24;6.53;;;3.20;;
7503;SDS011;3793;48.136;11.536;2022-10-04T12:33:08;3.60;;;2.97;;
7503;SDS011;3793;48.136;11.536;2022-10-04T12:35:42;5.18;;;3.00;;
7503;SDS011;3793;48.136;11.536;2022-10-04T12:38:17;5.55;;;3.25;;
7503;SDS011;3793;48.136;11.536;2022-10-04T12:40:47;6.40;;;3.17;;
7503;SDS011;3793;48.136;11.536;2022-10-04T12:43:20;5.70;;;3.13;;
7503;SDS011;3793;48.136;11.536;2022-10-04T12:45:55;5.88;;;2.53;;
7503;SDS011;3793;48.136;11.536;2022-10-04T12:51:21;3.85;;;2.67;;
7503;SDS011;3793;48.136;11.536;2022-10-04T12:53:54;5.13;;;2.75;;
7503;SDS011;3793;48.136;11.536;2022-10-04T12:56:33;9.55;;;3.17;;
7503;SDS011;3793;48.136;11.536;2022-10-04T12:59:08;5.32;;;2.65;;
7503;SDS011;3793;48.136;11.536;2022-10-04T13:01:39;3.58;;;2.20;;
7503;SDS011;3793;48.136;11.536;2022-10-04T13:04:18;5.93;;;2.33;;
7503;SDS011;3793;48.136;11.536;2022-10-04T13:06:53;5.70;;;2.30;;
7503;SDS011;3793;48.136;11.536;2022-10-04T13:09:25;5.68;;;2.20;;
7503;SDS011;3793;48.136;11.536;2022-10-04T13:11:58;8.55;;;2.28;;
7503;SDS011;3793;48.136;11.536;2022-10-04T13:17:24;2.78;;;2.03;;
7503;SDS011;3793;48.136;11.536;2022-10-04T13:19:58;3.75;;;2.38;;
7503;SDS011;3793;48.136;11.536;2022-10-04T13:22:34;4.53;;;2.55;;
7503;SDS011;3793;48.136;11.536;2022-10-04T13:27:45;3.88;;;2.50;;
7503;SDS011;3793;48.136;11.536;2022-10-04T13:30:15;3.85;;;2.20;;
7503;SDS011;3793;48.136;11.536;2022-10-04T13:32:47;5.82;;;2.50;;
7503;SDS011;3793;48.136;11.536;2022-10-04T13:35:19;5.20;;;2.08;;
7503;SDS011;3793;48.136;11.536;2022-10-04T13:37:53;3.63;;;2.50;;
7503;SDS011;3793;48.136;11.536;2022-10-04T13:40:32;5.35;;;2.42;;
7503;SDS011;3793;48.136;11.536;2022-10-04T13:43:07;4.55;;;2.53;;
7503;SDS011;3793;48.136;11.536;2022-10-04T13:45:41;3.83;;;2.38;;
7503;SDS011;3793;48.136;11.536;2022-10-04T13:48:21;6.20;;;2.42;;
7503;SDS011;3793;48.136;11.536;2022-10-04T13:50:57;3.95;;;2.35;;
7503;SDS011;3793;48.136;11.536;2022-10-04T13:53:30;5.03;;;2.47;;
7503;SDS011;3793;48.136;11.536;2022-10-04T13:56:29;7.80;;;2.35;;
7503;SDS011;3793;48.136;11.536;2022-10-04T13:59:06;5.10;;;2.30;;
7503;SDS011;3793;48.136;11.536;2022-10-04T14:04:29;4.55;;;2.65;;
7503;SDS011;3793;48.136;11.536;2022-10-04T14:07:18;5.95;;;2.58;;
7503;SDS011;3793;48.136;11.536;2022-10-04T14:09:59;4.70;;;2.25;;
7503;SDS011;3793;48.136;11.536;2022-10-04T14:12:36;2.65;;;1.98;;
7503;SDS011;3793;48.136;11.536;2022-10-04T14:21:05;4.53;;;2.00;;
7503;SDS011;3793;48.136;11.536;2022-10-04T14:23:42;7.13;;;1.90;;
7503;SDS011;3793;48.136;11.536;2022-10-04T14:29:12;3.83;;;2.22;;
7503;SDS011;3793;48.136;11.536;2022-10-04T14:31:46;3.55;;;1.92;;
7503;SDS011;3793;48.136;11.536;2022-10-04T14:37:16;3.33;;;1.83;;
7503;SDS011;3793;48.136;11.536;2022-10-04T14:39:52;2.35;;;1.92;;
7503;SDS011;3793;48.136;11.536;2022-10-04T14:45:16;3.03;;;2.00;;
7503;SDS011;3793;48.136;11.536;2022-10-04T14:50:28;2.95;;;1.80;;
7503;SDS011;3793;48.136;11.536;2022-10-04T14:53:07;4.38;;;2.20;;
7503;SDS011;3793;48.136;11.536;2022-10-04T14:55:46;3.78;;;2.00;;
7503;SDS011;3793;48.136;11.536;2022-10-04T14:58:17;3.85;;;2.05;;
7503;SDS011;3793;48.136;11.536;2022-10-04T15:00:53;4.68;;;2.22;;
7503;SDS011;3793;48.136;11.536;2022-10-04T15:03:29;5.97;;;2.42;;
7503;SDS011;3793;48.136;11.536;2022-10-04T15:06:04;4.28;;;1.63;;
7503;SDS011;3793;48.136;11.536;2022-10-04T15:08:46;4.25;;;2.30;;
7503;SDS011;3793;48.136;11.536;2022-10-04T15:11:16;3.00;;;2.10;;
7503;SDS011;3793;48.136;11.536;2022-10-04T15:13:49;3.22;;;2.13;;
7503;SDS011;3793;48.136;11.536;2022-10-04T15:16:21;4.30;;;2.50;;
7503;SDS011;3793;48.136;11.536;2022-10-04T15:18:57;4.85;;;1.80;;
7503;SDS011;3793;48.136;11.536;2022-10-04T15:24:29;5.43;;;1.90;;
7503;SDS011;3793;48.136;11.536;2022-10-04T15:27:00;3.72;;;1.95;;
7503;SDS011;3793;48.136;11.536;2022-10-04T15:29:30;4.20;;;2.00;;
7503;SDS011;3793;48.136;11.536;2022-10-04T15:32:01;4.43;;;2.25;;
7503;SDS011;3793;48.136;11.536;2022-10-04T15:34:31;4.78;;;2.22;;
7503;SDS011;3793;48.136;11.536;2022-10-04T15:37:02;3.85;;;2.45;;
7503;SDS011;3793;48.136;11.536;2022-10-04T15:39:38;4.13;;;2.20;;
7503;SDS011;3793;48.136;11.536;2022-10-04T15:42:09;3.72;;;1.88;;
7503;SDS011;3793;48.136;11.536;2022-10-04T15:44:42;6.03;;;2.17;;
7503;SDS011;3793;48.136;11.536;2022-10-04T15:47:14;3.10;;;1.90;;
7503;SDS011;3793;48.136;11.536;2022-10-04T15:49:53;5.03;;;2.08;;
7503;SDS011;3793;48.136;11.536;2022-10-04T15:55:14;4.05;;;2.28;;
7503;SDS011;3793;48.136;11.536;2022-10-04T15:58:02;4.90;;;2.20;;
7503;SDS011;3793;48.136;11.536;2022-10-04T16:00:38;3.33;;;1.90;;
7503;SDS011;3793;48.136;11.536;2022-10-04T16:03:12;3.65;;;2.35;;
7503;SDS011;3793;48.136;11.536;2022-10-04T16:05:41;5.18;;;2.30;;
7503;SDS011;3793;48.136;11.536;2022-10-04T16:08:14;5.13;;;2.08;;
7503;SDS011;3793;48.136;11.536;2022-10-04T16:10:53;3.55;;;2.00;;
7503;SDS011;3793;48.136;11.536;2022-10-04T16:13:37;3.15;;;2.03;;
7503;SDS011;3793;48.136;11.536;2022-10-04T16:19:00;3.25;;;2.13;;
7503;SDS011;3793;48.136;11.536;2022-10-04T16:27:11;4.80;;;2.47;;
7503;SDS011;3793;48.136;11.536;2022-10-04T16:29:44;3.90;;;2.17;;
7503;SDS011;3793;48.136;11.536;2022-10-04T16:32:15;3.27;;;2.27;;
7503;SDS011;3793;48.136;11.536;2022-10-04T16:34:46;6.47;;;2.73;;
7503;SDS011;3793;48.136;11.536;2022-10-04T16:37:16;5.00;;;2.73;;
7503;SDS011;3793;48.136;11.536;2022-10-04T16:39:48;3.40;;;2.50;;
7503;SDS011;3793;48.136;11.536;2022-10-04T16:42:32;4.77;;;3.10;;
7503;SDS011;3793;48.136;11.536;2022-10-04T16:45:24;3.38;;;2.78;;
7503;SDS011;3793;48.136;11.536;2022-10-04T16:47:49;6.37;;;3.13;;
7503;SDS011;3793;48.136;11.536;2022-10-04T16:52:59;4.33;;;2.90;;
7503;SDS011;3793;48.136;11.536;2022-10-04T16:55:32;7.77;;;3.57;;
7503;SDS011;3793;48.136;11.536;2022-10-04T17:03:37;4.87;;;3.53;;
7503;SDS011;3793;48.136;11.536;2022-10-04T17:06:12;6.00;;;3.77;;
7503;SDS011;3793;48.136;11.536;2022-10-04T17:08:47;9.27;;;5.10;;
7503;SDS011;3793;48.136;11.536;2022-10-04T17:11:26;8.87;;;4.00;;
7503;SDS011;3793;48.136;11.536;2022-10-04T17:13:55;6.10;;;3.87;;
7503;SDS011;3793;48.136;11.536;2022-10-04T17:16:27;5.97;;;4.00;;
7503;SDS011;3793;48.136;11.536;2022-10-04T17:19:12;8.07;;;4.00;;
7503;SDS011;3793;48.136;11.536;2022-10-04T17:21:41;9.40;;;4.20;;
7503;SDS011;3793;48.136;11.536;2022-10-04T17:24:15;9.13;;;4.27;;
7503;SDS011;3793;48.136;11.536;2022-10-04T17:26:50;6.30;;;4.07;;
7503;SDS011;3793;48.136;11.536;2022-10-04T17:32:02;7.83;;;4.33;;
7503;SDS011;3793;48.136;11.536;2022-10-04T17:34:37;6.37;;;3.70;;
7503;SDS011;3793;48.136;11.536;2022-10-04T17:37:10;5.07;;;3.60;;
7503;SDS011;3793;48.136;11.536;2022-10-04T17:39:40;5.67;;;3.63;;
7503;SDS011;3793;48.136;11.536;2022-10-04T17:45:13;6.67;;;3.97;;
7503;SDS011;3793;48.136;11.536;2022-10-04T17:47:44;10.10;;;4.20;;
7503;SDS011;3793;48.136;11.536;2022-10-04T17:50:34;8.07;;;4.50;;
7503;SDS011;3793;48.136;11.536;2022-10-04T17:53:22;7.03;;;4.43;;
7503;SDS011;3793;48.136;11.536;2022-10-04T17:56:08;7.23;;;4.57;;
7503;SDS011;3793;48.136;11.536;2022-10-04T17:58:39;6.57;;;4.30;;
7503;SDS011;3793;48.136;11.536;2022-10-04T18:01:09;5.30;;;3.70;;
7503;SDS011;3793;48.136;11.536;2022-10-04T18:03:38;6.90;;;4.67;;
7503;SDS011;3793;48.136;11.536;2022-10-04T18:06:13;6.03;;;4.40;;
7503;SDS011;3793;48.136;11.536;2022-10-04T18:08:44;7.50;;;4.70;;